Metar z pełnej godziny Komunikat METAR ze strony awiacja.imgw.pl Metar G00 EPML METAR EPML 211800Z AUTO 08005KT 9999 NCD 26/17 Q1013=